Time;durP1;ratioP1;P1;durP2;ratioP2;P2;SDS_P1;SDS_P2;PMS_P1;PMS_P2;Temp;Humidity;BMP_temperature;BMP_pressure;BME280_temperature;BME280_humidity;BME280_pressure;Samples;Min_cycle;Max_cycle;Signal;HPM_P1;HPM_P2
2023/06/10 00:02:16;;;;;;;;;;;;;;;;;;5065245;28;5193;-60
2023/06/10 00:04:41;;;;;;;;;;;;;;;;;;5067759;28;5381;-59
2023/06/10 00:07:08;;;;;;;;;;;;;;;;;;5070127;28;4422;-59
2023/06/10 00:09:40;;;;;;;;;;;;;;;;;;5068146;28;1347;-60
2023/06/10 00:12:06;;;;;;;;;;;;;;;;;;5068785;28;4925;-59
2023/06/10 00:14:31;;;;;;;;;;;;;;;;;;5069137;28;5016;-60
2023/06/10 00:16:57;;;;;;;;;;;;;;;;;;5068693;28;4425;-60
2023/06/10 00:19:25;;;;;;;;;;;;;;;;;;5068029;28;4703;-60
2023/06/10 00:21:51;;;;;;;;;;;;;;;;;;5062215;28;4606;-60
2023/06/10 00:24:16;;;;;;;;;;;;;;;;;;5069919;28;1291;-60
2023/06/10 00:26:41;;;;;;;;;;;;;;;;;;5067936;28;4658;-61
2023/06/10 00:29:07;;;;;;;;;;;;;;;;;;5069368;28;4722;-60
2023/06/10 00:31:33;;;;;;;;;;;;;;;;;;5067929;28;4482;-59
2023/06/10 00:33:58;;;;;;;;;;;;;;;;;;5065314;28;4709;-60
2023/06/10 00:36:24;;;;;;;;;;;;;;;;;;5076238;28;3437;-60
2023/06/10 00:38:49;;;;;;;;;;;;;;;;;;5067972;28;5070;-60
2023/06/10 00:41:15;;;;;;;;;;;;;;;;;;5066496;28;4633;-60
2023/06/10 00:43:40;;;;;;;;;;;;;;;;;;5068574;28;4474;-60
2023/06/10 00:46:05;;;;;;;;;;;;;;;;;;5067503;28;4549;-61
2023/06/10 00:48:30;;;;;;;;;;;;;;;;;;5064664;28;3227;-60
2023/06/10 00:50:56;;;;;;;;;;;;;;;;;;5066332;28;4686;-60
2023/06/10 00:53:21;;;;;;;;;;;;;;;;;;5067969;28;4533;-60
2023/06/10 00:55:47;;;;;;;;;;;;;;;;;;5066669;28;4579;-61
2023/06/10 00:58:12;;;;;;;;;;;;;;;;;;5063997;28;4725;-60
2023/06/10 01:00:57;;;;;;;;;;;;;;;;;;5067073;28;4457;-60
2023/06/10 01:03:41;;;;;;;;;;;;;;;;;;5063647;28;3423;-60
2023/06/10 01:09:23;;;;;;;;;;;;;;;;;;5061527;28;4580;-60
2023/06/10 01:11:51;;;;;;;;;;;;;;;;;;5063317;28;4659;-60
2023/06/10 01:14:16;;;;;;;;;;;;;;;;;;5061923;28;4466;-61
2023/06/10 01:16:42;;;;;;;;;;;;;;;;;;5068215;28;5113;-60
2023/06/10 01:19:07;;;;;;;;;;;;;;;;;;5066344;28;4724;-60
2023/06/10 01:21:33;;;;;;;;;;;;;;;;;;5068731;28;1263;-60
2023/06/10 01:23:58;;;;;;;;;;;;;;;;;;5068003;28;4444;-61
2023/06/10 01:26:25;;;;;;;;;;;;;;;;;;5066679;28;5408;-60
2023/06/10 01:28:58;;;;;;;;;;;;;;;;;;5066470;28;4417;-60
2023/06/10 01:31:26;;;;;;;;;;;;;;;;;;5066322;28;5242;-61
2023/06/10 01:33:51;;;;;;;;;;;;;;;;;;5065243;28;5138;-61
2023/06/10 01:36:18;;;;;;;;;;;;;;;;;;5068997;28;1148;-61
2023/06/10 01:38:43;;;;;;;;;;;;;;;;;;5068104;28;4572;-60
2023/06/10 01:41:12;;;;;;;;;;;;;;;;;;5064996;28;4634;-61
2023/06/10 01:43:37;;;;;;;;;;;;;;;;;;5083547;28;4466;-61
2023/06/10 01:46:03;;;;;;;;;;;;;;;;;;5065740;28;4500;-61
2023/06/10 01:48:28;;;;;;;;;;;;;;;;;;5067495;28;3287;-60
2023/06/10 01:50:55;;;;;;;;;;;;;;;;;;5067893;28;4804;-61
2023/06/10 01:53:21;;;;;;;;;;;;;;;;;;5067456;28;5137;-59
2023/06/10 01:55:46;;;;;;;;;;;;;;;;;;5067809;28;4658;-60
2023/06/10 01:58:11;;;;;;;;;;;;;;;;;;5066519;28;5042;-60
2023/06/10 02:00:36;;;;;;;;;;;;;;;;;;5068214;28;1088;-59
2023/06/10 02:03:01;;;;;;;;;;;;;;;;;;5061067;28;4904;-60
2023/06/10 02:05:27;;;;;;;;;;;;;;;;;;5067510;28;4392;-60
2023/06/10 02:07:52;;;;;;;;;;;;;;;;;;5067041;28;5025;-60
2023/06/10 02:10:17;;;;;;;;;;;;;;;;;;5066185;28;4536;-59
2023/06/10 02:12:43;;;;;;;;;;;;;;;;;;5063026;28;5079;-60
2023/06/10 02:15:08;;;;;;;;;;;;;;;;;;5067612;28;1918;-60
2023/06/10 02:17:33;;;;;;;;;;;;;;;;;;5063869;28;4724;-61
2023/06/10 02:19:59;;;;;;;;;;;;;;;;;;5067270;28;4643;-60
2023/06/10 02:22:25;;;;;;;;;;;;;;;;;;5065021;28;4461;-61
2023/06/10 02:24:50;;;;;;;;;;;;;;;;;;5067112;28;4982;-61
2023/06/10 02:27:15;;;;;;;;;;;;;;;;;;5067976;28;1070;-61
2023/06/10 02:29:41;;;;;;;;;;;;;;;;;;5067140;28;4801;-61
2023/06/10 02:32:06;;;;;;;;;;;;;;;;;;5066717;28;4501;-60
2023/06/10 02:34:31;;;;;;;;;;;;;;;;;;5065871;28;4566;-61
2023/06/10 02:36:57;;;;;;;;;;;;;;;;;;5064596;28;4505;-61
2023/06/10 02:39:22;;;;;;;;;;;;;;;;;;5062413;28;3231;-61
2023/06/10 02:41:47;;;;;;;;;;;;;;;;;;5062495;28;4429;-61
2023/06/10 02:44:12;;;;;;;;;;;;;;;;;;5064570;28;4437;-61
2023/06/10 02:46:38;;;;;;;;;;;;;;;;;;5066080;28;5019;-61
2023/06/10 02:49:03;;;;;;;;;;;;;;;;;;5065340;28;4888;-61
2023/06/10 02:51:28;;;;;;;;;;;;;;;;;;5067607;28;3074;-61
2023/06/10 02:53:53;;;;;;;;;;;;;;;;;;5046108;28;4632;-61
2023/06/10 02:56:20;;;;;;;;;;;;;;;;;;5066665;28;4603;-61
2023/06/10 02:58:45;;;;;;;;;;;;;;;;;;5066054;28;4678;-60
2023/06/10 03:01:10;;;;;;;;;;;;;;;;;;5062890;28;4902;-61
2023/06/10 03:03:40;;;;;;;;;;;;;;;;;;5066322;28;3293;-60
2023/06/10 03:06:05;;;;;;;;;;;;;;;;;;5061557;28;4598;-60
2023/06/10 03:08:31;;;;;;;;;;;;;;;;;;5065581;28;5193;-60
2023/06/10 03:10:57;;;;;;;;;;;;;;;;;;5061107;28;4665;-60
2023/06/10 03:13:23;;;;;;;;;;;;;;;;;;5065916;28;4491;-59
2023/06/10 03:15:48;;;;;;;;;;;;;;;;;;5064788;28;4719;-61
2023/06/10 03:18:14;;;;;;;;;;;;;;;;;;5067185;28;4634;-61
2023/06/10 03:20:39;;;;;;;;;;;;;;;;;;5056776;28;4663;-60
2023/06/10 03:23:07;;;;;;;;;;;;;;;;;;5076916;28;4455;-60
2023/06/10 03:25:33;;;;;;;;;;;;;;;;;;5066316;28;4590;-60
2023/06/10 03:27:58;;;;;;;;;;;;;;;;;;5060288;28;5159;-59
2023/06/10 03:30:23;;;;;;;;;;;;;;;;;;5065220;28;3587;-60
2023/06/10 03:32:49;;;;;;;;;;;;;;;;;;5065301;28;4403;-62
2023/06/10 03:35:14;;;;;;;;;;;;;;;;;;5065272;28;4709;-60
2023/06/10 03:37:40;;;;;;;;;;;;;;;;;;5063279;28;4703;-60
2023/06/10 03:40:08;;;;;;;;;;;;;;;;;;5061595;28;4446;-60
2023/06/10 03:42:33;;;;;;;;;;;;;;;;;;5065863;28;1990;-60
2023/06/10 03:44:59;;;;;;;;;;;;;;;;;;5066475;28;4407;-59
2023/06/10 03:47:24;;;;;;;;;;;;;;;;;;5065027;28;4511;-61
2023/06/10 03:49:49;;;;;;;;;;;;;;;;;;5065999;28;4777;-61
2023/06/10 03:52:15;;;;;;;;;;;;;;;;;;5066350;28;4958;-61
2023/06/10 03:54:40;;;;;;;;;;;;;;;;;;5066459;28;4650;-61
2023/06/10 03:57:05;;;;;;;;;;;;;;;;;;5067250;28;1244;-61
2023/06/10 03:59:31;;;;;;;;;;;;;;;;;;5066161;28;4462;-60
2023/06/10 04:01:58;;;;;;;;;;;;;;;;;;5065291;28;4459;-61
2023/06/10 04:04:23;;;;;;;;;;;;;;;;;;5066211;28;4701;-60
2023/06/10 04:06:49;;;;;;;;;;;;;;;;;;5065954;28;5062;-62
2023/06/10 04:09:15;;;;;;;;;;;;;;;;;;5066707;28;1129;-61
2023/06/10 04:11:40;;;;;;;;;;;;;;;;;;5054611;28;4546;-60
2023/06/10 04:14:05;;;;;;;;;;;;;;;;;;5065566;28;4433;-60
2023/06/10 04:16:31;;;;;;;;;;;;;;;;;;5064656;28;4524;-61
2023/06/10 04:18:56;;;;;;;;;;;;;;;;;;5066150;28;4784;-61
2023/06/10 04:21:21;;;;;;;;;;;;;;;;;;5067373;28;1092;-62
2023/06/10 04:23:47;;;;;;;;;;;;;;;;;;5069831;28;4401;-61
2023/06/10 04:26:12;;;;;;;;;;;;;;;;;;5069644;28;4423;-62
2023/06/10 04:28:37;;;;;;;;;;;;;;;;;;5069517;28;4481;-61
2023/06/10 04:31:03;;;;;;;;;;;;;;;;;;5068135;28;4700;-60
2023/06/10 04:33:29;;;;;;;;;;;;;;;;;;5064150;28;3244;-61
2023/06/10 04:35:55;;;;;;;;;;;;;;;;;;5069007;28;5059;-61
2023/06/10 04:38:21;;;;;;;;;;;;;;;;;;5068607;28;4804;-61
2023/06/10 04:40:46;;;;;;;;;;;;;;;;;;5064118;28;4705;-62
2023/06/10 04:43:12;;;;;;;;;;;;;;;;;;5068737;28;4462;-61
2023/06/10 04:45:37;;;;;;;;;;;;;;;;;;5065859;28;4719;-62
2023/06/10 04:48:03;;;;;;;;;;;;;;;;;;5069044;28;1275;-60
2023/06/10 04:50:28;;;;;;;;;;;;;;;;;;5068678;28;4461;-61
2023/06/10 04:52:56;;;;;;;;;;;;;;;;;;5067341;28;4466;-61
2023/06/10 04:55:22;;;;;;;;;;;;;;;;;;5066637;28;4591;-60
2023/06/10 04:57:47;;;;;;;;;;;;;;;;;;5068809;28;4420;-60
2023/06/10 05:00:14;;;;;;;;;;;;;;;;;;5066159;28;3133;-60
2023/06/10 05:02:39;;;;;;;;;;;;;;;;;;5068561;28;4621;-61
2023/06/10 05:05:04;;;;;;;;;;;;;;;;;;5068728;28;4569;-60
2023/06/10 05:07:29;;;;;;;;;;;;;;;;;;5068758;28;4980;-61
2023/06/10 05:09:55;;;;;;;;;;;;;;;;;;5066511;28;4459;-60
2023/06/10 05:12:20;;;;;;;;;;;;;;;;;;5067496;28;2101;-60
2023/06/10 05:14:46;;;;;;;;;;;;;;;;;;5066658;28;4963;-61
2023/06/10 05:17:12;;;;;;;;;;;;;;;;;;5067117;28;4615;-61
2023/06/10 05:19:38;;;;;;;;;;;;;;;;;;5067105;28;5025;-61
2023/06/10 05:22:03;;;;;;;;;;;;;;;;;;5064251;28;4703;-60
2023/06/10 05:24:28;;;;;;;;;;;;;;;;;;5067380;28;3031;-61
2023/06/10 05:26:53;;;;;;;;;;;;;;;;;;5066283;28;4651;-60
2023/06/10 05:29:19;;;;;;;;;;;;;;;;;;5063996;28;5835;-61
2023/06/10 05:31:44;;;;;;;;;;;;;;;;;;5059838;28;4499;-61
2023/06/10 05:34:10;;;;;;;;;;;;;;;;;;5065595;28;4507;-60
2023/06/10 05:36:35;;;;;;;;;;;;;;;;;;5066454;28;1289;-60
2023/06/10 05:39:00;;;;;;;;;;;;;;;;;;5061181;28;4604;-60
2023/06/10 05:41:26;;;;;;;;;;;;;;;;;;5065803;28;4649;-60
2023/06/10 05:43:51;;;;;;;;;;;;;;;;;;5054557;28;4476;-60
2023/06/10 05:46:16;;;;;;;;;;;;;;;;;;5068132;28;5446;-61
2023/06/10 05:48:41;;;;;;;;;;;;;;;;;;5073540;28;4501;-59
2023/06/10 05:51:06;;;;;;;;;;;;;;;;;;5067126;28;3235;-60
2023/06/10 05:53:32;;;;;;;;;;;;;;;;;;5063637;28;4384;-60
2023/06/10 05:55:57;;;;;;;;;;;;;;;;;;5063103;28;4694;-63
2023/06/10 05:58:22;;;;;;;;;;;;;;;;;;5062570;28;4911;-61
2023/06/10 06:00:48;;;;;;;;;;;;;;;;;;5058181;28;5469;-61
2023/06/10 06:03:13;;;;;;;;;;;;;;;;;;5099106;27;3314;-61
2023/06/10 06:05:38;;;;;;;;;;;;;;;;;;5066761;28;4405;-60
2023/06/10 06:08:04;;;;;;;;;;;;;;;;;;5066516;28;5047;-61
2023/06/10 06:10:29;;;;;;;;;;;;;;;;;;5060901;28;4855;-61
2023/06/10 06:12:56;;;;;;;;;;;;;;;;;;5063925;28;4955;-61
2023/06/10 06:15:21;;;;;;;;;;;;;;;;;;5058217;28;3489;-62
2023/06/10 06:17:46;;;;;;;;;;;;;;;;;;5060136;28;4763;-61
2023/06/10 06:20:12;;;;;;;;;;;;;;;;;;5068615;28;4531;-62
2023/06/10 06:22:37;;;;;;;;;;;;;;;;;;5065265;28;4456;-59
2023/06/10 06:25:02;;;;;;;;;;;;;;;;;;5063469;28;4517;-60
2023/06/10 06:27:27;;;;;;;;;;;;;;;;;;5063722;28;3259;-61
2023/06/10 06:29:53;;;;;;;;;;;;;;;;;;5055697;28;4455;-60
2023/06/10 06:32:19;;;;;;;;;;;;;;;;;;5064253;28;4482;-69
2023/06/10 06:34:44;;;;;;;;;;;;;;;;;;5061729;28;5391;-60
2023/06/10 06:37:09;;;;;;;;;;;;;;;;;;5061897;28;5071;-63
2023/06/10 06:39:34;;;;;;;;;;;;;;;;;;5062199;28;3557;-60
2023/06/10 06:42:00;;;;;;;;;;;;;;;;;;5057349;28;4421;-59
2023/06/10 06:44:25;;;;;;;;;;;;;;;;;;5070110;28;5114;-61
2023/06/10 06:46:50;;;;;;;;;;;;;;;;;;5063655;28;4486;-60
2023/06/10 06:49:15;;;;;;;;;;;;;;;;;;5066519;28;4688;-60
2023/06/10 06:51:41;;;;;;;;;;;;;;;;;;5064687;28;4943;-60
2023/06/10 06:54:06;;;;;;;;;;;;;;;;;;5048690;28;1919;-60
2023/06/10 06:56:31;;;;;;;;;;;;;;;;;;5063609;28;4479;-60
2023/06/10 06:58:56;;;;;;;;;;;;;;;;;;5066045;28;4450;-59
2023/06/10 07:01:22;;;;;;;;;;;;;;;;;;5065919;28;4987;-60
2023/06/10 07:03:47;;;;;;;;;;;;;;;;;;5060092;28;5122;-60
2023/06/10 07:06:12;;;;;;;;;;;;;;;;;;5065660;28;3573;-60
2023/06/10 07:08:38;;;;;;;;;;;;;;;;;;5061136;28;5017;-61
2023/06/10 07:11:03;;;;;;;;;;;;;;;;;;5050900;28;4616;-61
2023/06/10 07:13:29;;;;;;;;;;;;;;;;;;5058740;28;5022;-66
2023/06/10 07:15:55;;;;;;;;;;;;;;;;;;5057432;28;5272;-64
2023/06/10 07:18:20;;;;;;;;;;;;;;;;;;5067563;28;4681;-60
2023/06/10 07:20:45;;;;;;;;;;;;;;;;;;5061126;28;4933;-60
2023/06/10 07:23:10;;;;;;;;;;;;;;;;;;5061194;28;4664;-68
2023/06/10 07:25:36;;;;;;;;;;;;;;;;;;5062683;28;4705;-66
2023/06/10 07:28:01;;;;;;;;;;;;;;;;;;5064939;28;4479;-68
2023/06/10 07:30:27;;;;;;;;;;;;;;;;;;5066520;28;3333;-68
2023/06/10 07:32:52;;;;;;;;;;;;;;;;;;5061492;28;4526;-67
2023/06/10 07:35:18;;;;;;;;;;;;;;;;;;5062713;28;4662;-66
2023/06/10 07:37:43;;;;;;;;;;;;;;;;;;5063444;28;4623;-66
2023/06/10 07:40:09;;;;;;;;;;;;;;;;;;5057443;28;4476;-64
2023/06/10 07:42:35;;;;;;;;;;;;;;;;;;5060996;28;3683;-66
2023/06/10 07:45:01;;;;;;;;;;;;;;;;;;5064386;28;4459;-66
2023/06/10 07:47:26;;;;;;;;;;;;;;;;;;5044022;28;4741;-67
2023/06/10 07:49:51;;;;;;;;;;;;;;;;;;5063656;28;4613;-66
2023/06/10 07:52:16;;;;;;;;;;;;;;;;;;5063953;28;4560;-57
2023/06/10 07:54:42;;;;;;;;;;;;;;;;;;5063680;28;4837;-65
2023/06/10 07:57:07;;;;;;;;;;;;;;;;;;5062711;28;3303;-67
2023/06/10 07:59:32;;;;;;;;;;;;;;;;;;5073140;28;4441;-67
2023/06/10 08:01:58;;;;;;;;;;;;;;;;;;5067074;28;4468;-66
2023/06/10 08:04:23;;;;;;;;;;;;;;;;;;5067997;28;4495;-75
2023/06/10 08:06:48;;;;;;;;;;;;;;;;;;5066556;28;4456;-74
2023/06/10 08:09:13;;;;;;;;;;;;;;;;;;5057780;28;3482;-73
2023/06/10 08:11:39;;;;;;;;;;;;;;;;;;5063684;28;4675;-73
2023/06/10 08:14:05;;;;;;;;;;;;;;;;;;5069072;28;5200;-74
2023/06/10 08:16:31;;;;;;;;;;;;;;;;;;5068403;28;4430;-73
2023/06/10 08:18:57;;;;;;;;;;;;;;;;;;5068116;28;4793;-74
2023/06/10 08:21:22;;;;;;;;;;;;;;;;;;5070875;28;1151;-74
2023/06/10 08:23:49;;;;;;;;;;;;;;;;;;5066936;28;4830;-73
2023/06/10 08:26:14;;;;;;;;;;;;;;;;;;5060917;28;4628;-73
2023/06/10 08:28:39;;;;;;;;;;;;;;;;;;5067275;28;4451;-73
2023/06/10 08:31:23;;;;;;;;;;;;;;;;;;5069551;28;4451;-73
2023/06/10 08:33:54;;;;;;;;;;;;;;;;;;5068201;28;5161;-74
2023/06/10 08:36:20;;;;;;;;;;;;;;;;;;5065500;28;3456;-73
2023/06/10 08:38:45;;;;;;;;;;;;;;;;;;5068355;28;4412;-74
2023/06/10 08:41:10;;;;;;;;;;;;;;;;;;5066547;28;4939;-74
2023/06/10 08:43:40;;;;;;;;;;;;;;;;;;5067436;28;4681;-73
2023/06/10 08:46:05;;;;;;;;;;;;;;;;;;5063126;28;4450;-72
2023/06/10 08:48:31;;;;;;;;;;;;;;;;;;5068636;28;1163;-72
2023/06/10 08:50:56;;;;;;;;;;;;;;;;;;5068556;28;4404;-73
2023/06/10 08:53:22;;;;;;;;;;;;;;;;;;5069161;28;4449;-73
2023/06/10 08:55:49;;;;;;;;;;;;;;;;;;5066795;28;4985;-72
2023/06/10 08:58:14;;;;;;;;;;;;;;;;;;5067060;28;4628;-72
2023/06/10 09:00:41;;;;;;;;;;;;;;;;;;5060997;28;4473;-72
2023/06/10 09:03:08;;;;;;;;;;;;;;;;;;5067684;28;1229;-72
2023/06/10 09:05:34;;;;;;;;;;;;;;;;;;5067121;28;4921;-73
2023/06/10 09:07:59;;;;;;;;;;;;;;;;;;5066034;28;4516;-72
2023/06/10 09:10:25;;;;;;;;;;;;;;;;;;5062534;28;4612;-71
2023/06/10 09:12:50;;;;;;;;;;;;;;;;;;5066652;28;4644;-72
2023/06/10 09:15:17;;;;;;;;;;;;;;;;;;5065489;28;3358;-72
2023/06/10 09:17:44;;;;;;;;;;;;;;;;;;5059100;28;4800;-71
2023/06/10 09:20:09;;;;;;;;;;;;;;;;;;5058607;28;5052;-73
2023/06/10 09:22:35;;;;;;;;;;;;;;;;;;5066459;28;4537;-72
2023/06/10 09:25:05;;;;;;;;;;;;;;;;;;5066174;28;4465;-72
2023/06/10 09:27:32;;;;;;;;;;;;;;;;;;5067194;28;1173;-73
2023/06/10 09:29:58;;;;;;;;;;;;;;;;;;5065853;28;4675;-72
2023/06/10 09:32:23;;;;;;;;;;;;;;;;;;5067333;28;4469;-72
2023/06/10 09:34:49;;;;;;;;;;;;;;;;;;5067254;28;5507;-72
2023/06/10 09:37:21;;;;;;;;;;;;;;;;;;5068321;28;4453;-73
2023/06/10 09:40:04;;;;;;;;;;;;;;;;;;5061715;28;4662;-73
2023/06/10 09:42:32;;;;;;;;;;;;;;;;;;5068871;28;1197;-72
2023/06/10 09:44:57;;;;;;;;;;;;;;;;;;5065775;28;4968;-73
2023/06/10 09:47:23;;;;;;;;;;;;;;;;;;5068138;28;4436;-72
2023/06/10 09:49:50;;;;;;;;;;;;;;;;;;5067651;28;5062;-73
2023/06/10 09:52:26;;;;;;;;;;;;;;;;;;5062237;28;4991;-72
2023/06/10 09:54:52;;;;;;;;;;;;;;;;;;5067591;28;4484;-72
2023/06/10 09:57:17;;;;;;;;;;;;;;;;;;5068242;28;1163;-73
2023/06/10 09:59:45;;;;;;;;;;;;;;;;;;5067449;28;4586;-72
2023/06/10 10:02:15;;;;;;;;;;;;;;;;;;5067517;28;4945;-73
2023/06/10 10:04:41;;;;;;;;;;;;;;;;;;5064261;28;4936;-73
2023/06/10 10:07:07;;;;;;;;;;;;;;;;;;5061361;28;4661;-73
2023/06/10 10:09:32;;;;;;;;;;;;;;;;;;5063420;28;1103;-71
2023/06/10 10:11:58;;;;;;;;;;;;;;;;;;5064244;28;4428;-73
2023/06/10 10:14:23;;;;;;;;;;;;;;;;;;5065585;28;5054;-72
2023/06/10 10:16:48;;;;;;;;;;;;;;;;;;5065735;28;4520;-72
2023/06/10 10:19:15;;;;;;;;;;;;;;;;;;5064985;28;4804;-70
2023/06/10 10:21:45;;;;;;;;;;;;;;;;;;5057961;28;4592;-71
2023/06/10 10:24:18;;;;;;;;;;;;;;;;;;5065953;28;2327;-71
2023/06/10 10:26:43;;;;;;;;;;;;;;;;;;5061863;28;4420;-71
2023/06/10 10:29:20;;;;;;;;;;;;;;;;;;5065968;28;4617;-70
2023/06/10 10:31:46;;;;;;;;;;;;;;;;;;5067105;28;4462;-72
2023/06/10 10:34:19;;;;;;;;;;;;;;;;;;5065640;28;4491;-71
2023/06/10 10:36:44;;;;;;;;;;;;;;;;;;5061692;28;4462;-71
2023/06/10 10:39:10;;;;;;;;;;;;;;;;;;5065164;28;3208;-70
2023/06/10 10:41:35;;;;;;;;;;;;;;;;;;5055490;28;4813;-71
2023/06/10 10:44:00;;;;;;;;;;;;;;;;;;5054366;28;4695;-72
2023/06/10 10:46:25;;;;;;;;;;;;;;;;;;5061100;28;4472;-71
2023/06/10 10:48:54;;;;;;;;;;;;;;;;;;5063135;28;4933;-71
2023/06/10 10:51:19;;;;;;;;;;;;;;;;;;5064634;28;3514;-72
2023/06/10 10:53:46;;;;;;;;;;;;;;;;;;5052482;28;4673;-71
2023/06/10 10:56:15;;;;;;;;;;;;;;;;;;5064068;28;4490;-72
2023/06/10 10:58:41;;;;;;;;;;;;;;;;;;5064671;28;4660;-73
2023/06/10 11:01:12;;;;;;;;;;;;;;;;;;5064628;28;4654;-73
2023/06/10 11:03:45;;;;;;;;;;;;;;;;;;5064569;28;4612;-72
2023/06/10 11:06:17;;;;;;;;;;;;;;;;;;5059317;28;3420;-72
2023/06/10 11:08:43;;;;;;;;;;;;;;;;;;5063496;28;5384;-73
2023/06/10 11:11:23;;;;;;;;;;;;;;;;;;5059695;28;4433;-70
2023/06/10 11:14:01;;;;;;;;;;;;;;;;;;5052839;28;5096;-74
2023/06/10 11:16:26;;;;;;;;;;;;;;;;;;5061683;28;4710;-68
2023/06/10 11:18:55;;;;;;;;;;;;;;;;;;5065831;28;5260;-66
2023/06/10 11:21:20;;;;;;;;;;;;;;;;;;5061624;28;3439;-67
2023/06/10 11:23:45;;;;;;;;;;;;;;;;;;5063657;28;4580;-67
2023/06/10 11:26:11;;;;;;;;;;;;;;;;;;5054792;28;4495;-68
2023/06/10 11:28:37;;;;;;;;;;;;;;;;;;5065350;28;5149;-67
2023/06/10 11:31:02;;;;;;;;;;;;;;;;;;5058301;28;5266;-66
2023/06/10 11:33:27;;;;;;;;;;;;;;;;;;5080801;28;3743;-66
2023/06/10 11:35:53;;;;;;;;;;;;;;;;;;5068536;28;4723;-66
2023/06/10 11:38:18;;;;;;;;;;;;;;;;;;5067330;28;4472;-66
2023/06/10 11:40:50;;;;;;;;;;;;;;;;;;5062696;28;5176;-67
2023/06/10 11:43:16;;;;;;;;;;;;;;;;;;5070113;28;4441;-67
2023/06/10 11:45:41;;;;;;;;;;;;;;;;;;5065649;28;4743;-67
2023/06/10 11:48:06;;;;;;;;;;;;;;;;;;5071292;28;1323;-68
2023/06/10 11:50:32;;;;;;;;;;;;;;;;;;5063812;28;4451;-68
2023/06/10 11:52:58;;;;;;;;;;;;;;;;;;5069328;28;4490;-67
2023/06/10 11:55:24;;;;;;;;;;;;;;;;;;5068927;28;5185;-66
2023/06/10 11:57:57;;;;;;;;;;;;;;;;;;5069959;28;5151;-67
2023/06/10 12:00:22;;;;;;;;;;;;;;;;;;5061514;28;2065;-66
2023/06/10 12:02:55;;;;;;;;;;;;;;;;;;5066943;28;4439;-65
2023/06/10 12:05:20;;;;;;;;;;;;;;;;;;5063033;28;5050;-66
2023/06/10 12:07:45;;;;;;;;;;;;;;;;;;5065353;28;4519;-66
2023/06/10 12:10:10;;;;;;;;;;;;;;;;;;5069459;28;4984;-67
2023/06/10 12:12:36;;;;;;;;;;;;;;;;;;5068986;28;3016;-68
2023/06/10 12:15:03;;;;;;;;;;;;;;;;;;5070751;28;4389;-67
2023/06/10 12:17:31;;;;;;;;;;;;;;;;;;5061005;28;4491;-71
2023/06/10 12:19:57;;;;;;;;;;;;;;;;;;5064057;28;4484;-70
2023/06/10 12:22:23;;;;;;;;;;;;;;;;;;5066884;28;4670;-72
2023/06/10 12:25:01;;;;;;;;;;;;;;;;;;5052776;28;5133;-69
2023/06/10 12:27:29;;;;;;;;;;;;;;;;;;5068901;28;3331;-69
2023/06/10 12:29:55;;;;;;;;;;;;;;;;;;5083655;28;4958;-67
2023/06/10 12:32:22;;;;;;;;;;;;;;;;;;5056578;28;4472;-69
2023/06/10 12:34:47;;;;;;;;;;;;;;;;;;5065821;28;4469;-70
2023/06/10 12:37:13;;;;;;;;;;;;;;;;;;5068382;28;4495;-71
2023/06/10 12:39:39;;;;;;;;;;;;;;;;;;5049159;28;4634;-71
2023/06/10 12:42:04;;;;;;;;;;;;;;;;;;5065727;28;1476;-68
2023/06/10 12:44:33;;;;;;;;;;;;;;;;;;5067431;28;4530;-70
2023/06/10 12:46:58;;;;;;;;;;;;;;;;;;5061527;28;4991;-72
2023/06/10 12:49:23;;;;;;;;;;;;;;;;;;5067823;28;4476;-71
2023/06/10 12:51:49;;;;;;;;;;;;;;;;;;5061144;28;4550;-73
2023/06/10 12:54:14;;;;;;;;;;;;;;;;;;5068433;28;3251;-72
2023/06/10 12:56:39;;;;;;;;;;;;;;;;;;5068274;28;4908;-72
2023/06/10 12:59:05;;;;;;;;;;;;;;;;;;5069227;28;4570;-72
2023/06/10 13:01:31;;;;;;;;;;;;;;;;;;5053377;28;4962;-72
2023/06/10 13:03:56;;;;;;;;;;;;;;;;;;5070597;28;4507;-71
2023/06/10 13:06:22;;;;;;;;;;;;;;;;;;5067587;28;3343;-71
2023/06/10 13:08:47;;;;;;;;;;;;;;;;;;5067257;28;5125;-71
2023/06/10 13:11:12;;;;;;;;;;;;;;;;;;5055370;28;5005;-74
2023/06/10 13:13:37;;;;;;;;;;;;;;;;;;5068520;28;5151;-73
2023/06/10 13:16:03;;;;;;;;;;;;;;;;;;5066176;28;4521;-75
2023/06/10 13:18:28;;;;;;;;;;;;;;;;;;5065431;28;4665;-70
2023/06/10 13:20:53;;;;;;;;;;;;;;;;;;5065140;28;4435;-71
2023/06/10 13:23:18;;;;;;;;;;;;;;;;;;5064514;28;4662;-60
2023/06/10 13:25:44;;;;;;;;;;;;;;;;;;5066276;28;5205;-66
2023/06/10 13:28:10;;;;;;;;;;;;;;;;;;5063820;28;5029;-67
2023/06/10 13:30:35;;;;;;;;;;;;;;;;;;5067158;28;3356;-68
2023/06/10 13:33:00;;;;;;;;;;;;;;;;;;5058844;28;4451;-67
2023/06/10 13:35:25;;;;;;;;;;;;;;;;;;5059575;28;4472;-67
2023/06/10 13:37:51;;;;;;;;;;;;;;;;;;5068029;28;4607;-68
2023/06/10 13:40:16;;;;;;;;;;;;;;;;;;5062710;28;5202;-69
2023/06/10 13:42:41;;;;;;;;;;;;;;;;;;5066737;28;4503;-67
2023/06/10 13:45:07;;;;;;;;;;;;;;;;;;5067025;28;1826;-67
2023/06/10 13:47:32;;;;;;;;;;;;;;;;;;5067852;28;6008;-67
2023/06/10 13:49:58;;;;;;;;;;;;;;;;;;5066383;28;5059;-67
2023/06/10 13:52:23;;;;;;;;;;;;;;;;;;5066348;28;4542;-67
2023/06/10 13:54:48;;;;;;;;;;;;;;;;;;5065080;28;4560;-67
2023/06/10 13:57:13;;;;;;;;;;;;;;;;;;5065171;28;3509;-67
2023/06/10 13:59:39;;;;;;;;;;;;;;;;;;5068183;28;4583;-67
2023/06/10 14:02:04;;;;;;;;;;;;;;;;;;5066606;28;4842;-66
2023/06/10 14:04:29;;;;;;;;;;;;;;;;;;5068213;28;5016;-67
2023/06/10 14:06:55;;;;;;;;;;;;;;;;;;5066734;28;4572;-67
2023/06/10 14:09:20;;;;;;;;;;;;;;;;;;5068247;28;985;-67
2023/06/10 14:11:45;;;;;;;;;;;;;;;;;;5061762;28;4656;-67
2023/06/10 14:14:11;;;;;;;;;;;;;;;;;;5067181;28;4958;-67
2023/06/10 14:16:36;;;;;;;;;;;;;;;;;;5066167;28;4511;-67
2023/06/10 14:19:01;;;;;;;;;;;;;;;;;;5067375;28;5217;-67
2023/06/10 14:21:26;;;;;;;;;;;;;;;;;;5066409;28;3264;-67
2023/06/10 14:23:53;;;;;;;;;;;;;;;;;;5063760;28;4603;-66
2023/06/10 14:26:18;;;;;;;;;;;;;;;;;;5065881;28;4491;-66
2023/06/10 14:28:43;;;;;;;;;;;;;;;;;;5065895;28;4935;-66
2023/06/10 14:31:09;;;;;;;;;;;;;;;;;;5064790;28;4641;-66
2023/06/10 14:33:34;;;;;;;;;;;;;;;;;;5064088;28;3370;-66
2023/06/10 14:35:59;;;;;;;;;;;;;;;;;;5062199;28;4440;-66
2023/06/10 14:38:25;;;;;;;;;;;;;;;;;;5060725;28;4471;-66
2023/06/10 14:40:50;;;;;;;;;;;;;;;;;;5065791;28;5663;-67
2023/06/10 14:43:16;;;;;;;;;;;;;;;;;;5066362;28;4505;-66
2023/06/10 14:45:41;;;;;;;;;;;;;;;;;;5067251;28;1276;-67
2023/06/10 14:48:06;;;;;;;;;;;;;;;;;;5059800;28;4376;-65
2023/06/10 14:50:32;;;;;;;;;;;;;;;;;;5059100;28;4483;-65
2023/06/10 14:52:58;;;;;;;;;;;;;;;;;;5063215;28;4522;-62
2023/06/10 14:55:23;;;;;;;;;;;;;;;;;;5047738;28;4528;-66
2023/06/10 14:57:48;;;;;;;;;;;;;;;;;;5063872;28;4861;-66
2023/06/10 15:00:15;;;;;;;;;;;;;;;;;;5067473;28;1084;-67
2023/06/10 15:02:40;;;;;;;;;;;;;;;;;;5065118;28;4499;-66
2023/06/10 15:05:06;;;;;;;;;;;;;;;;;;5063049;28;4615;-66
2023/06/10 15:07:31;;;;;;;;;;;;;;;;;;5066594;28;4720;-66
2023/06/10 15:09:56;;;;;;;;;;;;;;;;;;5059536;28;4489;-58
2023/06/10 15:12:21;;;;;;;;;;;;;;;;;;5060304;28;3515;-59
2023/06/10 15:14:47;;;;;;;;;;;;;;;;;;5062711;28;4563;-60
2023/06/10 15:17:13;;;;;;;;;;;;;;;;;;5062796;28;4512;-60
2023/06/10 15:19:39;;;;;;;;;;;;;;;;;;5062359;28;5008;-60
2023/06/10 15:22:04;;;;;;;;;;;;;;;;;;5059962;28;4699;-58
2023/06/10 15:24:29;;;;;;;;;;;;;;;;;;5063517;28;3336;-58
2023/06/10 15:26:54;;;;;;;;;;;;;;;;;;5064494;28;5075;-56
2023/06/10 15:29:20;;;;;;;;;;;;;;;;;;5059673;28;4470;-62
2023/06/10 15:31:45;;;;;;;;;;;;;;;;;;5060709;28;5103;-58
2023/06/10 15:34:10;;;;;;;;;;;;;;;;;;5061392;28;4485;-58
2023/06/10 15:36:36;;;;;;;;;;;;;;;;;;5060669;28;3585;-59
2023/06/10 15:39:03;;;;;;;;;;;;;;;;;;5061978;28;4426;-58
2023/06/10 15:41:28;;;;;;;;;;;;;;;;;;5061111;28;4609;-57
2023/06/10 15:43:53;;;;;;;;;;;;;;;;;;5063219;28;4468;-60
2023/06/10 15:46:18;;;;;;;;;;;;;;;;;;5064317;28;5191;-58
2023/06/10 15:48:44;;;;;;;;;;;;;;;;;;5062233;28;4582;-55
2023/06/10 15:51:09;;;;;;;;;;;;;;;;;;5061758;28;3009;-59
2023/06/10 15:53:35;;;;;;;;;;;;;;;;;;5058109;28;4755;-67
2023/06/10 15:56:01;;;;;;;;;;;;;;;;;;5060709;28;4481;-67
2023/06/10 15:58:26;;;;;;;;;;;;;;;;;;5064761;28;4630;-66
2023/06/10 16:00:51;;;;;;;;;;;;;;;;;;5064089;28;4948;-66
2023/06/10 16:03:16;;;;;;;;;;;;;;;;;;5059188;28;3428;-64
2023/06/10 16:05:42;;;;;;;;;;;;;;;;;;5061619;28;4446;-64
2023/06/10 16:08:07;;;;;;;;;;;;;;;;;;5062551;28;5046;-64
2023/06/10 16:10:32;;;;;;;;;;;;;;;;;;5057242;28;4935;-64
2023/06/10 16:12:58;;;;;;;;;;;;;;;;;;5052628;28;4951;-64
2023/06/10 16:15:23;;;;;;;;;;;;;;;;;;5057802;28;3741;-62
2023/06/10 16:17:48;;;;;;;;;;;;;;;;;;5058743;28;4677;-64
2023/06/10 16:20:13;;;;;;;;;;;;;;;;;;5066197;28;4449;-64
2023/06/10 16:22:39;;;;;;;;;;;;;;;;;;5068375;28;5019;-68
2023/06/10 16:25:05;;;;;;;;;;;;;;;;;;5068136;28;5136;-61
2023/06/10 16:27:30;;;;;;;;;;;;;;;;;;5063990;28;3299;-63
2023/06/10 16:29:55;;;;;;;;;;;;;;;;;;5063389;28;4511;-62
2023/06/10 16:32:21;;;;;;;;;;;;;;;;;;5066027;28;4485;-61
2023/06/10 16:34:46;;;;;;;;;;;;;;;;;;5063981;28;4491;-59
2023/06/10 16:37:11;;;;;;;;;;;;;;;;;;5066576;28;4682;-60
2023/06/10 16:39:36;;;;;;;;;;;;;;;;;;5061429;28;3403;-60
2023/06/10 16:42:02;;;;;;;;;;;;;;;;;;5064921;28;4971;-60
2023/06/10 16:44:27;;;;;;;;;;;;;;;;;;5063408;28;4666;-60
2023/06/10 16:46:52;;;;;;;;;;;;;;;;;;5065756;28;4494;-61
2023/06/10 16:49:17;;;;;;;;;;;;;;;;;;5063655;28;4983;-61
2023/06/10 16:51:43;;;;;;;;;;;;;;;;;;5069364;28;1064;-62
2023/06/10 16:54:08;;;;;;;;;;;;;;;;;;5068097;28;4380;-62
2023/06/10 16:56:34;;;;;;;;;;;;;;;;;;5066165;28;4482;-62
2023/06/10 16:58:59;;;;;;;;;;;;;;;;;;5068343;28;4442;-62